sensor_id;sensor_type;location;lat;lon;timestamp;P1;durP1;ratioP1;P2;durP2;ratioP2
62268;SDS011;56517;51.634;5.566;2023-04-15T00:01:17;22.92;;;13.35;;
62268;SDS011;56517;51.634;5.566;2023-04-15T00:02:38;18.73;;;11.60;;
62268;SDS011;56517;51.634;5.566;2023-04-15T00:03:59;24.52;;;12.55;;
62268;SDS011;56517;51.634;5.566;2023-04-15T00:05:20;20.88;;;12.70;;
62268;SDS011;56517;51.634;5.566;2023-04-15T00:06:41;27.30;;;12.95;;
62268;SDS011;56517;51.634;5.566;2023-04-15T00:08:02;20.70;;;12.55;;
62268;SDS011;56517;51.634;5.566;2023-04-15T00:09:23;18.08;;;11.25;;
62268;SDS011;56517;51.634;5.566;2023-04-15T00:10:44;23.25;;;14.05;;
62268;SDS011;56517;51.634;5.566;2023-04-15T00:12:06;27.02;;;13.40;;
62268;SDS011;56517;51.634;5.566;2023-04-15T00:13:27;19.95;;;11.27;;
62268;SDS011;56517;51.634;5.566;2023-04-15T00:14:48;20.27;;;13.02;;
62268;SDS011;56517;51.634;5.566;2023-04-15T00:16:09;15.23;;;11.55;;
62268;SDS011;56517;51.634;5.566;2023-04-15T00:17:31;21.65;;;12.55;;
62268;SDS011;56517;51.634;5.566;2023-04-15T00:18:52;18.30;;;12.48;;
62268;SDS011;56517;51.634;5.566;2023-04-15T00:20:12;22.73;;;13.50;;
62268;SDS011;56517;51.634;5.566;2023-04-15T00:21:34;19.70;;;12.25;;
62268;SDS011;56517;51.634;5.566;2023-04-15T00:22:55;17.33;;;10.85;;
62268;SDS011;56517;51.634;5.566;2023-04-15T00:24:16;23.92;;;11.77;;
62268;SDS011;56517;51.634;5.566;2023-04-15T00:25:37;25.55;;;12.82;;
62268;SDS011;56517;51.634;5.566;2023-04-15T00:26:58;22.15;;;13.43;;
62268;SDS011;56517;51.634;5.566;2023-04-15T00:28:19;16.23;;;11.80;;
62268;SDS011;56517;51.634;5.566;2023-04-15T00:29:40;22.85;;;12.35;;
62268;SDS011;56517;51.634;5.566;2023-04-15T00:31:01;26.77;;;12.93;;
62268;SDS011;56517;51.634;5.566;2023-04-15T00:32:22;23.13;;;13.18;;
62268;SDS011;56517;51.634;5.566;2023-04-15T00:33:43;22.25;;;11.65;;
62268;SDS011;56517;51.634;5.566;2023-04-15T00:35:04;23.35;;;11.52;;
62268;SDS011;56517;51.634;5.566;2023-04-15T00:36:25;18.48;;;11.77;;
62268;SDS011;56517;51.634;5.566;2023-04-15T00:37:46;17.40;;;11.82;;
62268;SDS011;56517;51.634;5.566;2023-04-15T00:39:07;20.95;;;13.23;;
62268;SDS011;56517;51.634;5.566;2023-04-15T00:40:28;21.50;;;12.65;;
62268;SDS011;56517;51.634;5.566;2023-04-15T00:41:49;19.50;;;12.68;;
62268;SDS011;56517;51.634;5.566;2023-04-15T00:43:09;22.45;;;12.55;;
62268;SDS011;56517;51.634;5.566;2023-04-15T00:44:30;18.52;;;12.13;;
62268;SDS011;56517;51.634;5.566;2023-04-15T00:45:52;17.92;;;12.65;;
62268;SDS011;56517;51.634;5.566;2023-04-15T00:47:14;17.30;;;12.37;;
62268;SDS011;56517;51.634;5.566;2023-04-15T00:48:35;20.52;;;11.88;;
62268;SDS011;56517;51.634;5.566;2023-04-15T00:49:57;24.00;;;13.73;;
62268;SDS011;56517;51.634;5.566;2023-04-15T00:51:18;16.95;;;12.02;;
62268;SDS011;56517;51.634;5.566;2023-04-15T00:52:39;20.83;;;12.05;;
62268;SDS011;56517;51.634;5.566;2023-04-15T00:54:03;22.60;;;12.55;;
62268;SDS011;56517;51.634;5.566;2023-04-15T00:55:25;19.67;;;13.15;;
62268;SDS011;56517;51.634;5.566;2023-04-15T00:56:46;21.70;;;13.13;;
62268;SDS011;56517;51.634;5.566;2023-04-15T00:58:07;17.08;;;11.43;;
62268;SDS011;56517;51.634;5.566;2023-04-15T00:59:28;19.00;;;12.50;;
62268;SDS011;56517;51.634;5.566;2023-04-15T01:00:49;27.63;;;14.07;;
62268;SDS011;56517;51.634;5.566;2023-04-15T01:02:13;18.65;;;11.25;;
62268;SDS011;56517;51.634;5.566;2023-04-15T01:03:34;18.92;;;11.90;;
62268;SDS011;56517;51.634;5.566;2023-04-15T01:04:55;20.02;;;11.40;;
62268;SDS011;56517;51.634;5.566;2023-04-15T01:06:16;21.80;;;13.13;;
62268;SDS011;56517;51.634;5.566;2023-04-15T01:07:39;21.05;;;12.13;;
62268;SDS011;56517;51.634;5.566;2023-04-15T01:09:00;18.73;;;12.85;;
62268;SDS011;56517;51.634;5.566;2023-04-15T01:10:21;19.27;;;12.30;;
62268;SDS011;56517;51.634;5.566;2023-04-15T01:11:41;22.42;;;13.20;;
62268;SDS011;56517;51.634;5.566;2023-04-15T01:13:03;18.55;;;12.45;;
62268;SDS011;56517;51.634;5.566;2023-04-15T01:14:24;22.48;;;12.80;;
62268;SDS011;56517;51.634;5.566;2023-04-15T01:15:45;20.02;;;11.93;;
62268;SDS011;56517;51.634;5.566;2023-04-15T01:17:06;24.00;;;12.80;;
62268;SDS011;56517;51.634;5.566;2023-04-15T01:18:28;19.20;;;12.90;;
62268;SDS011;56517;51.634;5.566;2023-04-15T01:19:48;22.40;;;13.27;;
62268;SDS011;56517;51.634;5.566;2023-04-15T01:21:09;15.05;;;13.10;;
62268;SDS011;56517;51.634;5.566;2023-04-15T01:22:31;25.88;;;12.95;;
62268;SDS011;56517;51.634;5.566;2023-04-15T01:23:53;19.90;;;12.98;;
62268;SDS011;56517;51.634;5.566;2023-04-15T01:25:18;17.30;;;12.10;;
62268;SDS011;56517;51.634;5.566;2023-04-15T01:26:39;20.70;;;13.32;;
62268;SDS011;56517;51.634;5.566;2023-04-15T01:28:00;17.73;;;12.40;;
62268;SDS011;56517;51.634;5.566;2023-04-15T01:29:21;15.90;;;11.88;;
62268;SDS011;56517;51.634;5.566;2023-04-15T01:30:42;23.25;;;11.75;;
62268;SDS011;56517;51.634;5.566;2023-04-15T01:32:04;21.98;;;14.23;;
62268;SDS011;56517;51.634;5.566;2023-04-15T01:33:25;23.20;;;14.10;;
62268;SDS011;56517;51.634;5.566;2023-04-15T01:34:47;20.50;;;13.10;;
62268;SDS011;56517;51.634;5.566;2023-04-15T01:36:08;18.52;;;12.70;;
62268;SDS011;56517;51.634;5.566;2023-04-15T01:37:29;22.35;;;13.98;;
62268;SDS011;56517;51.634;5.566;2023-04-15T01:38:50;20.77;;;13.52;;
62268;SDS011;56517;51.634;5.566;2023-04-15T01:40:11;15.90;;;12.48;;
62268;SDS011;56517;51.634;5.566;2023-04-15T01:41:33;19.88;;;13.60;;
62268;SDS011;56517;51.634;5.566;2023-04-15T01:42:54;20.58;;;14.13;;
62268;SDS011;56517;51.634;5.566;2023-04-15T01:44:15;25.08;;;14.00;;
62268;SDS011;56517;51.634;5.566;2023-04-15T01:45:36;17.30;;;13.20;;
62268;SDS011;56517;51.634;5.566;2023-04-15T01:46:57;21.17;;;14.02;;
62268;SDS011;56517;51.634;5.566;2023-04-15T01:48:18;22.70;;;14.75;;
62268;SDS011;56517;51.634;5.566;2023-04-15T01:49:39;26.23;;;14.60;;
62268;SDS011;56517;51.634;5.566;2023-04-15T01:51:00;19.00;;;14.02;;
62268;SDS011;56517;51.634;5.566;2023-04-15T01:52:21;20.30;;;12.25;;
62268;SDS011;56517;51.634;5.566;2023-04-15T01:53:43;24.23;;;14.30;;
62268;SDS011;56517;51.634;5.566;2023-04-15T01:55:04;19.88;;;13.48;;
62268;SDS011;56517;51.634;5.566;2023-04-15T01:56:25;22.90;;;14.02;;
62268;SDS011;56517;51.634;5.566;2023-04-15T01:57:46;25.83;;;13.57;;
62268;SDS011;56517;51.634;5.566;2023-04-15T01:59:07;28.42;;;14.50;;
62268;SDS011;56517;51.634;5.566;2023-04-15T02:00:29;19.23;;;13.35;;
62268;SDS011;56517;51.634;5.566;2023-04-15T02:01:52;22.23;;;13.27;;
62268;SDS011;56517;51.634;5.566;2023-04-15T02:03:13;19.48;;;14.43;;
62268;SDS011;56517;51.634;5.566;2023-04-15T02:04:33;24.20;;;14.02;;
62268;SDS011;56517;51.634;5.566;2023-04-15T02:05:54;24.05;;;14.25;;
62268;SDS011;56517;51.634;5.566;2023-04-15T02:07:16;25.45;;;15.15;;
62268;SDS011;56517;51.634;5.566;2023-04-15T02:08:37;24.98;;;14.50;;
62268;SDS011;56517;51.634;5.566;2023-04-15T02:09:58;25.33;;;14.43;;
62268;SDS011;56517;51.634;5.566;2023-04-15T02:11:19;24.20;;;14.68;;
62268;SDS011;56517;51.634;5.566;2023-04-15T02:12:40;24.67;;;14.18;;
62268;SDS011;56517;51.634;5.566;2023-04-15T02:14:00;20.70;;;13.68;;
62268;SDS011;56517;51.634;5.566;2023-04-15T02:15:21;19.30;;;13.68;;
62268;SDS011;56517;51.634;5.566;2023-04-15T02:16:42;18.85;;;14.20;;
62268;SDS011;56517;51.634;5.566;2023-04-15T02:18:03;19.90;;;13.30;;
62268;SDS011;56517;51.634;5.566;2023-04-15T02:19:24;15.20;;;12.70;;
62268;SDS011;56517;51.634;5.566;2023-04-15T02:20:45;19.55;;;13.30;;
62268;SDS011;56517;51.634;5.566;2023-04-15T02:22:06;19.90;;;13.45;;
62268;SDS011;56517;51.634;5.566;2023-04-15T02:23:28;18.08;;;13.52;;
62268;SDS011;56517;51.634;5.566;2023-04-15T02:24:49;24.27;;;12.82;;
62268;SDS011;56517;51.634;5.566;2023-04-15T02:26:10;21.30;;;14.00;;
62268;SDS011;56517;51.634;5.566;2023-04-15T02:27:31;23.55;;;14.18;;
62268;SDS011;56517;51.634;5.566;2023-04-15T02:28:53;24.33;;;13.73;;
62268;SDS011;56517;51.634;5.566;2023-04-15T02:30:14;22.40;;;13.98;;
62268;SDS011;56517;51.634;5.566;2023-04-15T02:31:35;18.35;;;12.50;;
62268;SDS011;56517;51.634;5.566;2023-04-15T02:32:59;16.23;;;13.70;;
62268;SDS011;56517;51.634;5.566;2023-04-15T02:34:20;15.48;;;12.60;;
62268;SDS011;56517;51.634;5.566;2023-04-15T02:35:41;18.48;;;13.77;;
62268;SDS011;56517;51.634;5.566;2023-04-15T02:37:04;20.20;;;12.68;;
62268;SDS011;56517;51.634;5.566;2023-04-15T02:38:26;20.65;;;14.10;;
62268;SDS011;56517;51.634;5.566;2023-04-15T02:39:47;22.38;;;13.85;;
62268;SDS011;56517;51.634;5.566;2023-04-15T02:41:08;17.73;;;13.55;;
62268;SDS011;56517;51.634;5.566;2023-04-15T02:42:29;20.52;;;13.38;;
62268;SDS011;56517;51.634;5.566;2023-04-15T02:43:51;25.30;;;13.98;;
62268;SDS011;56517;51.634;5.566;2023-04-15T02:45:12;22.35;;;12.63;;
62268;SDS011;56517;51.634;5.566;2023-04-15T02:46:33;18.58;;;13.43;;
62268;SDS011;56517;51.634;5.566;2023-04-15T02:47:54;18.63;;;13.63;;
62268;SDS011;56517;51.634;5.566;2023-04-15T02:49:15;22.85;;;14.68;;
62268;SDS011;56517;51.634;5.566;2023-04-15T02:50:36;25.33;;;14.80;;
62268;SDS011;56517;51.634;5.566;2023-04-15T02:51:59;17.95;;;13.35;;
62268;SDS011;56517;51.634;5.566;2023-04-15T02:53:20;26.40;;;14.45;;
62268;SDS011;56517;51.634;5.566;2023-04-15T02:54:41;23.92;;;14.23;;
62268;SDS011;56517;51.634;5.566;2023-04-15T02:56:02;21.73;;;13.90;;
62268;SDS011;56517;51.634;5.566;2023-04-15T02:57:23;24.10;;;14.85;;
62268;SDS011;56517;51.634;5.566;2023-04-15T02:58:44;22.70;;;14.75;;
62268;SDS011;56517;51.634;5.566;2023-04-15T03:00:05;21.58;;;12.95;;
62268;SDS011;56517;51.634;5.566;2023-04-15T03:01:29;23.17;;;14.50;;
62268;SDS011;56517;51.634;5.566;2023-04-15T03:02:50;19.13;;;13.88;;
62268;SDS011;56517;51.634;5.566;2023-04-15T03:04:15;23.95;;;14.05;;
62268;SDS011;56517;51.634;5.566;2023-04-15T03:05:36;24.73;;;15.07;;
62268;SDS011;56517;51.634;5.566;2023-04-15T03:06:59;22.80;;;14.88;;
62268;SDS011;56517;51.634;5.566;2023-04-15T03:08:20;22.92;;;14.70;;
62268;SDS011;56517;51.634;5.566;2023-04-15T03:09:41;24.90;;;15.13;;
62268;SDS011;56517;51.634;5.566;2023-04-15T03:11:02;21.75;;;15.07;;
62268;SDS011;56517;51.634;5.566;2023-04-15T03:12:23;23.15;;;14.73;;
62268;SDS011;56517;51.634;5.566;2023-04-15T03:13:44;26.20;;;14.38;;
62268;SDS011;56517;51.634;5.566;2023-04-15T03:15:05;19.52;;;13.73;;
62268;SDS011;56517;51.634;5.566;2023-04-15T03:16:26;21.08;;;14.02;;
62268;SDS011;56517;51.634;5.566;2023-04-15T03:17:47;27.13;;;14.75;;
62268;SDS011;56517;51.634;5.566;2023-04-15T03:19:09;23.47;;;14.67;;
62268;SDS011;56517;51.634;5.566;2023-04-15T03:20:29;24.83;;;15.45;;
62268;SDS011;56517;51.634;5.566;2023-04-15T03:21:51;21.70;;;15.02;;
62268;SDS011;56517;51.634;5.566;2023-04-15T03:23:12;24.58;;;15.80;;
62268;SDS011;56517;51.634;5.566;2023-04-15T03:24:32;26.10;;;15.52;;
62268;SDS011;56517;51.634;5.566;2023-04-15T03:25:53;24.58;;;15.25;;
62268;SDS011;56517;51.634;5.566;2023-04-15T03:27:18;24.55;;;14.88;;
62268;SDS011;56517;51.634;5.566;2023-04-15T03:28:38;23.50;;;14.30;;
62268;SDS011;56517;51.634;5.566;2023-04-15T03:29:59;22.52;;;13.90;;
62268;SDS011;56517;51.634;5.566;2023-04-15T03:31:20;20.85;;;14.70;;
62268;SDS011;56517;51.634;5.566;2023-04-15T03:32:41;18.52;;;13.73;;
62268;SDS011;56517;51.634;5.566;2023-04-15T03:34:02;22.58;;;14.35;;
62268;SDS011;56517;51.634;5.566;2023-04-15T03:35:23;29.08;;;15.57;;
62268;SDS011;56517;51.634;5.566;2023-04-15T03:36:44;24.17;;;15.52;;
62268;SDS011;56517;51.634;5.566;2023-04-15T03:38:05;22.17;;;15.27;;
62268;SDS011;56517;51.634;5.566;2023-04-15T03:39:26;23.50;;;15.50;;
62268;SDS011;56517;51.634;5.566;2023-04-15T03:40:47;22.80;;;15.07;;
62268;SDS011;56517;51.634;5.566;2023-04-15T03:42:08;25.65;;;14.73;;
62268;SDS011;56517;51.634;5.566;2023-04-15T03:43:29;20.27;;;15.13;;
62268;SDS011;56517;51.634;5.566;2023-04-15T03:44:50;23.23;;;15.38;;
62268;SDS011;56517;51.634;5.566;2023-04-15T03:46:11;21.58;;;15.18;;
62268;SDS011;56517;51.634;5.566;2023-04-15T03:47:32;23.73;;;14.18;;
62268;SDS011;56517;51.634;5.566;2023-04-15T03:48:53;25.45;;;14.73;;
62268;SDS011;56517;51.634;5.566;2023-04-15T03:50:14;20.15;;;14.77;;
62268;SDS011;56517;51.634;5.566;2023-04-15T03:51:35;22.92;;;14.63;;
62268;SDS011;56517;51.634;5.566;2023-04-15T03:52:56;25.27;;;14.60;;
62268;SDS011;56517;51.634;5.566;2023-04-15T03:54:17;24.10;;;14.82;;
62268;SDS011;56517;51.634;5.566;2023-04-15T03:55:38;22.77;;;14.23;;
62268;SDS011;56517;51.634;5.566;2023-04-15T03:56:59;23.63;;;14.95;;
62268;SDS011;56517;51.634;5.566;2023-04-15T03:58:20;19.65;;;14.70;;
62268;SDS011;56517;51.634;5.566;2023-04-15T03:59:41;21.52;;;14.45;;
62268;SDS011;56517;51.634;5.566;2023-04-15T04:01:02;28.08;;;15.13;;
62268;SDS011;56517;51.634;5.566;2023-04-15T04:02:23;26.77;;;16.40;;
62268;SDS011;56517;51.634;5.566;2023-04-15T04:03:44;28.83;;;15.05;;
62268;SDS011;56517;51.634;5.566;2023-04-15T04:05:05;29.10;;;15.98;;
62268;SDS011;56517;51.634;5.566;2023-04-15T04:06:26;25.50;;;15.02;;
62268;SDS011;56517;51.634;5.566;2023-04-15T04:07:47;24.13;;;15.15;;
62268;SDS011;56517;51.634;5.566;2023-04-15T04:09:08;23.13;;;14.07;;
62268;SDS011;56517;51.634;5.566;2023-04-15T04:10:29;22.23;;;14.20;;
62268;SDS011;56517;51.634;5.566;2023-04-15T04:11:50;22.90;;;14.98;;
62268;SDS011;56517;51.634;5.566;2023-04-15T04:13:11;23.45;;;14.63;;
62268;SDS011;56517;51.634;5.566;2023-04-15T04:14:31;24.35;;;15.20;;
62268;SDS011;56517;51.634;5.566;2023-04-15T04:15:52;21.70;;;13.80;;
62268;SDS011;56517;51.634;5.566;2023-04-15T04:17:13;20.67;;;13.85;;
62268;SDS011;56517;51.634;5.566;2023-04-15T04:18:34;27.40;;;16.00;;
62268;SDS011;56517;51.634;5.566;2023-04-15T04:19:55;22.63;;;14.85;;
62268;SDS011;56517;51.634;5.566;2023-04-15T04:21:16;26.15;;;16.30;;
62268;SDS011;56517;51.634;5.566;2023-04-15T04:22:38;21.90;;;14.20;;
62268;SDS011;56517;51.634;5.566;2023-04-15T04:24:01;21.65;;;14.13;;
62268;SDS011;56517;51.634;5.566;2023-04-15T04:25:22;26.63;;;15.38;;
62268;SDS011;56517;51.634;5.566;2023-04-15T04:26:44;19.27;;;14.05;;
62268;SDS011;56517;51.634;5.566;2023-04-15T04:28:05;28.05;;;15.30;;
62268;SDS011;56517;51.634;5.566;2023-04-15T04:29:25;28.50;;;15.50;;
62268;SDS011;56517;51.634;5.566;2023-04-15T04:30:46;32.88;;;16.63;;
62268;SDS011;56517;51.634;5.566;2023-04-15T04:32:07;26.90;;;15.70;;
62268;SDS011;56517;51.634;5.566;2023-04-15T04:33:28;24.67;;;15.93;;
62268;SDS011;56517;51.634;5.566;2023-04-15T04:34:49;27.17;;;16.52;;
62268;SDS011;56517;51.634;5.566;2023-04-15T04:36:10;28.92;;;15.38;;
62268;SDS011;56517;51.634;5.566;2023-04-15T04:37:31;23.65;;;15.00;;
62268;SDS011;56517;51.634;5.566;2023-04-15T04:38:52;22.73;;;15.02;;
62268;SDS011;56517;51.634;5.566;2023-04-15T04:40:12;21.98;;;15.48;;
62268;SDS011;56517;51.634;5.566;2023-04-15T04:41:34;27.63;;;15.05;;
62268;SDS011;56517;51.634;5.566;2023-04-15T04:42:54;25.02;;;15.18;;
62268;SDS011;56517;51.634;5.566;2023-04-15T04:44:16;26.15;;;15.60;;
62268;SDS011;56517;51.634;5.566;2023-04-15T04:45:37;27.25;;;15.70;;
62268;SDS011;56517;51.634;5.566;2023-04-15T04:46:58;28.63;;;15.55;;
62268;SDS011;56517;51.634;5.566;2023-04-15T04:48:18;23.27;;;14.48;;
62268;SDS011;56517;51.634;5.566;2023-04-15T04:49:40;27.80;;;15.13;;
62268;SDS011;56517;51.634;5.566;2023-04-15T04:51:01;25.45;;;14.95;;
62268;SDS011;56517;51.634;5.566;2023-04-15T04:52:22;22.88;;;15.23;;
62268;SDS011;56517;51.634;5.566;2023-04-15T04:53:42;25.65;;;15.98;;
62268;SDS011;56517;51.634;5.566;2023-04-15T04:55:04;31.63;;;16.02;;
62268;SDS011;56517;51.634;5.566;2023-04-15T04:56:25;30.17;;;15.80;;
62268;SDS011;56517;51.634;5.566;2023-04-15T04:57:46;21.83;;;14.75;;
62268;SDS011;56517;51.634;5.566;2023-04-15T04:59:07;22.13;;;14.88;;
62268;SDS011;56517;51.634;5.566;2023-04-15T05:00:27;23.85;;;14.07;;
62268;SDS011;56517;51.634;5.566;2023-04-15T05:01:49;30.42;;;15.43;;
62268;SDS011;56517;51.634;5.566;2023-04-15T05:03:10;23.35;;;15.70;;
62268;SDS011;56517;51.634;5.566;2023-04-15T05:04:31;25.73;;;15.73;;
62268;SDS011;56517;51.634;5.566;2023-04-15T05:05:52;22.17;;;14.88;;
62268;SDS011;56517;51.634;5.566;2023-04-15T05:07:12;23.85;;;15.65;;
62268;SDS011;56517;51.634;5.566;2023-04-15T05:08:33;24.20;;;14.82;;
62268;SDS011;56517;51.634;5.566;2023-04-15T05:09:54;24.08;;;14.57;;
62268;SDS011;56517;51.634;5.566;2023-04-15T05:11:15;28.35;;;15.68;;
62268;SDS011;56517;51.634;5.566;2023-04-15T05:12:36;27.90;;;15.80;;
62268;SDS011;56517;51.634;5.566;2023-04-15T05:13:58;19.95;;;14.63;;
62268;SDS011;56517;51.634;5.566;2023-04-15T05:15:21;19.35;;;13.07;;
62268;SDS011;56517;51.634;5.566;2023-04-15T05:16:42;19.70;;;13.43;;
62268;SDS011;56517;51.634;5.566;2023-04-15T05:18:03;22.63;;;15.45;;
62268;SDS011;56517;51.634;5.566;2023-04-15T05:19:23;21.50;;;14.10;;
62268;SDS011;56517;51.634;5.566;2023-04-15T05:20:44;22.45;;;15.48;;
62268;SDS011;56517;51.634;5.566;2023-04-15T05:22:06;21.15;;;14.18;;
62268;SDS011;56517;51.634;5.566;2023-04-15T05:23:27;23.67;;;15.85;;
62268;SDS011;56517;51.634;5.566;2023-04-15T05:24:48;24.73;;;15.65;;
62268;SDS011;56517;51.634;5.566;2023-04-15T05:26:08;23.65;;;14.95;;
62268;SDS011;56517;51.634;5.566;2023-04-15T05:27:29;27.27;;;15.48;;
62268;SDS011;56517;51.634;5.566;2023-04-15T05:28:50;23.65;;;14.45;;
62268;SDS011;56517;51.634;5.566;2023-04-15T05:30:11;27.60;;;16.55;;
62268;SDS011;56517;51.634;5.566;2023-04-15T05:31:32;21.80;;;14.30;;
62268;SDS011;56517;51.634;5.566;2023-04-15T05:32:53;21.00;;;15.57;;
62268;SDS011;56517;51.634;5.566;2023-04-15T05:34:14;28.67;;;16.23;;
62268;SDS011;56517;51.634;5.566;2023-04-15T05:35:36;21.70;;;14.55;;
62268;SDS011;56517;51.634;5.566;2023-04-15T05:36:57;25.48;;;15.65;;
62268;SDS011;56517;51.634;5.566;2023-04-15T05:38:18;21.50;;;14.48;;
62268;SDS011;56517;51.634;5.566;2023-04-15T05:39:39;25.75;;;15.63;;
62268;SDS011;56517;51.634;5.566;2023-04-15T05:41:00;24.55;;;15.57;;
62268;SDS011;56517;51.634;5.566;2023-04-15T05:42:21;26.65;;;15.98;;
62268;SDS011;56517;51.634;5.566;2023-04-15T05:43:42;26.20;;;15.80;;
62268;SDS011;56517;51.634;5.566;2023-04-15T05:45:03;29.63;;;16.30;;
62268;SDS011;56517;51.634;5.566;2023-04-15T05:47:46;21.30;;;14.07;;
62268;SDS011;56517;51.634;5.566;2023-04-15T05:49:07;22.55;;;15.25;;
62268;SDS011;56517;51.634;5.566;2023-04-15T05:50:28;22.73;;;14.75;;
62268;SDS011;56517;51.634;5.566;2023-04-15T05:51:48;27.40;;;15.60;;
62268;SDS011;56517;51.634;5.566;2023-04-15T05:53:09;21.33;;;13.95;;
62268;SDS011;56517;51.634;5.566;2023-04-15T05:54:31;20.50;;;15.55;;
62268;SDS011;56517;51.634;5.566;2023-04-15T05:55:52;23.65;;;14.57;;
62268;SDS011;56517;51.634;5.566;2023-04-15T05:57:13;25.55;;;15.48;;
62268;SDS011;56517;51.634;5.566;2023-04-15T05:58:33;22.52;;;15.38;;
62268;SDS011;56517;51.634;5.566;2023-04-15T05:59:54;27.05;;;15.38;;
62268;SDS011;56517;51.634;5.566;2023-04-15T06:01:16;21.08;;;14.73;;
62268;SDS011;56517;51.634;5.566;2023-04-15T06:02:37;25.05;;;15.15;;
62268;SDS011;56517;51.634;5.566;2023-04-15T06:03:58;27.88;;;15.77;;
62268;SDS011;56517;51.634;5.566;2023-04-15T06:05:19;24.17;;;15.45;;
62268;SDS011;56517;51.634;5.566;2023-04-15T06:06:40;29.00;;;15.90;;
62268;SDS011;56517;51.634;5.566;2023-04-15T06:08:01;25.15;;;14.88;;
62268;SDS011;56517;51.634;5.566;2023-04-15T06:09:22;22.23;;;15.10;;
62268;SDS011;56517;51.634;5.566;2023-04-15T06:10:43;24.33;;;15.35;;
62268;SDS011;56517;51.634;5.566;2023-04-15T06:12:04;21.60;;;14.80;;
62268;SDS011;56517;51.634;5.566;2023-04-15T06:13:26;24.25;;;15.25;;
62268;SDS011;56517;51.634;5.566;2023-04-15T06:14:47;25.23;;;15.63;;
62268;SDS011;56517;51.634;5.566;2023-04-15T06:16:08;23.40;;;14.23;;
62268;SDS011;56517;51.634;5.566;2023-04-15T06:17:29;22.70;;;15.60;;
62268;SDS011;56517;51.634;5.566;2023-04-15T06:18:49;27.13;;;16.30;;
62268;SDS011;56517;51.634;5.566;2023-04-15T06:20:10;29.77;;;16.13;;
62268;SDS011;56517;51.634;5.566;2023-04-15T06:21:31;32.97;;;17.63;;
62268;SDS011;56517;51.634;5.566;2023-04-15T06:22:53;28.15;;;16.08;;
62268;SDS011;56517;51.634;5.566;2023-04-15T06:24:13;29.42;;;16.48;;
62268;SDS011;56517;51.634;5.566;2023-04-15T06:25:35;26.63;;;16.02;;
62268;SDS011;56517;51.634;5.566;2023-04-15T06:26:55;24.50;;;14.80;;
62268;SDS011;56517;51.634;5.566;2023-04-15T06:28:17;24.27;;;15.32;;
62268;SDS011;56517;51.634;5.566;2023-04-15T06:29:38;23.35;;;15.00;;
62268;SDS011;56517;51.634;5.566;2023-04-15T06:30:59;26.80;;;15.55;;
62268;SDS011;56517;51.634;5.566;2023-04-15T06:32:21;26.17;;;15.95;;
62268;SDS011;56517;51.634;5.566;2023-04-15T06:33:42;23.42;;;14.10;;
62268;SDS011;56517;51.634;5.566;2023-04-15T06:35:03;24.60;;;14.75;;
62268;SDS011;56517;51.634;5.566;2023-04-15T06:36:23;21.05;;;14.07;;
62268;SDS011;56517;51.634;5.566;2023-04-15T06:37:44;27.77;;;14.90;;
62268;SDS011;56517;51.634;5.566;2023-04-15T06:39:05;28.55;;;16.27;;
62268;SDS011;56517;51.634;5.566;2023-04-15T06:40:26;25.85;;;15.15;;
62268;SDS011;56517;51.634;5.566;2023-04-15T06:41:47;26.33;;;14.90;;
62268;SDS011;56517;51.634;5.566;2023-04-15T06:43:08;40.05;;;17.58;;
62268;SDS011;56517;51.634;5.566;2023-04-15T06:44:29;25.52;;;14.52;;
62268;SDS011;56517;51.634;5.566;2023-04-15T06:45:50;25.45;;;15.55;;
62268;SDS011;56517;51.634;5.566;2023-04-15T06:47:11;24.45;;;15.30;;
62268;SDS011;56517;51.634;5.566;2023-04-15T06:48:34;23.60;;;15.20;;
62268;SDS011;56517;51.634;5.566;2023-04-15T06:49:55;27.50;;;16.13;;
62268;SDS011;56517;51.634;5.566;2023-04-15T06:51:16;27.77;;;15.77;;
62268;SDS011;56517;51.634;5.566;2023-04-15T06:52:36;25.33;;;14.75;;
62268;SDS011;56517;51.634;5.566;2023-04-15T06:53:57;24.80;;;14.60;;
62268;SDS011;56517;51.634;5.566;2023-04-15T06:55:18;25.10;;;14.90;;
62268;SDS011;56517;51.634;5.566;2023-04-15T06:56:39;25.52;;;15.30;;
62268;SDS011;56517;51.634;5.566;2023-04-15T06:58:01;24.67;;;14.82;;
62268;SDS011;56517;51.634;5.566;2023-04-15T06:59:22;28.02;;;16.25;;
62268;SDS011;56517;51.634;5.566;2023-04-15T07:00:43;27.58;;;15.25;;
62268;SDS011;56517;51.634;5.566;2023-04-15T07:02:04;20.92;;;14.07;;
62268;SDS011;56517;51.634;5.566;2023-04-15T07:03:28;32.33;;;16.33;;
62268;SDS011;56517;51.634;5.566;2023-04-15T07:04:49;25.73;;;14.93;;
62268;SDS011;56517;51.634;5.566;2023-04-15T07:06:10;22.30;;;13.40;;
62268;SDS011;56517;51.634;5.566;2023-04-15T07:07:31;22.95;;;13.10;;
62268;SDS011;56517;51.634;5.566;2023-04-15T07:08:52;20.30;;;12.00;;
62268;SDS011;56517;51.634;5.566;2023-04-15T07:10:13;23.17;;;13.65;;
62268;SDS011;56517;51.634;5.566;2023-04-15T07:11:35;24.15;;;13.13;;
62268;SDS011;56517;51.634;5.566;2023-04-15T07:12:56;22.63;;;13.80;;
62268;SDS011;56517;51.634;5.566;2023-04-15T07:14:17;23.35;;;13.25;;
62268;SDS011;56517;51.634;5.566;2023-04-15T07:15:38;25.73;;;13.85;;
62268;SDS011;56517;51.634;5.566;2023-04-15T07:16:59;19.15;;;11.80;;
62268;SDS011;56517;51.634;5.566;2023-04-15T07:18:20;25.73;;;12.80;;
62268;SDS011;56517;51.634;5.566;2023-04-15T07:19:41;27.13;;;13.73;;
62268;SDS011;56517;51.634;5.566;2023-04-15T07:21:02;20.80;;;12.60;;
62268;SDS011;56517;51.634;5.566;2023-04-15T07:22:22;23.25;;;13.43;;
62268;SDS011;56517;51.634;5.566;2023-04-15T07:23:43;22.70;;;11.88;;
62268;SDS011;56517;51.634;5.566;2023-04-15T07:25:05;22.10;;;12.65;;
62268;SDS011;56517;51.634;5.566;2023-04-15T07:26:26;21.52;;;12.60;;
62268;SDS011;56517;51.634;5.566;2023-04-15T07:27:47;21.77;;;12.20;;
62268;SDS011;56517;51.634;5.566;2023-04-15T07:29:07;21.65;;;11.55;;
62268;SDS011;56517;51.634;5.566;2023-04-15T07:30:28;19.65;;;11.68;;
62268;SDS011;56517;51.634;5.566;2023-04-15T07:31:50;19.77;;;10.37;;
62268;SDS011;56517;51.634;5.566;2023-04-15T07:33:10;20.83;;;11.07;;
62268;SDS011;56517;51.634;5.566;2023-04-15T07:34:31;17.77;;;10.90;;
62268;SDS011;56517;51.634;5.566;2023-04-15T07:35:52;23.00;;;11.43;;
62268;SDS011;56517;51.634;5.566;2023-04-15T07:37:13;22.25;;;11.23;;
62268;SDS011;56517;51.634;5.566;2023-04-15T07:38:34;16.52;;;9.85;;
62268;SDS011;56517;51.634;5.566;2023-04-15T07:39:55;21.15;;;12.15;;
62268;SDS011;56517;51.634;5.566;2023-04-15T07:41:17;20.40;;;12.10;;
62268;SDS011;56517;51.634;5.566;2023-04-15T07:42:38;15.48;;;10.07;;
62268;SDS011;56517;51.634;5.566;2023-04-15T07:43:59;19.25;;;10.73;;
62268;SDS011;56517;51.634;5.566;2023-04-15T07:45:20;18.23;;;10.85;;
62268;SDS011;56517;51.634;5.566;2023-04-15T07:46:41;17.80;;;10.63;;
62268;SDS011;56517;51.634;5.566;2023-04-15T07:48:02;17.08;;;10.73;;
62268;SDS011;56517;51.634;5.566;2023-04-15T07:49:23;19.23;;;11.00;;
62268;SDS011;56517;51.634;5.566;2023-04-15T07:50:44;19.60;;;11.18;;
62268;SDS011;56517;51.634;5.566;2023-04-15T07:52:05;19.10;;;11.50;;
62268;SDS011;56517;51.634;5.566;2023-04-15T07:53:26;14.90;;;10.05;;
62268;SDS011;56517;51.634;5.566;2023-04-15T07:54:47;18.75;;;10.65;;
62268;SDS011;56517;51.634;5.566;2023-04-15T07:56:07;14.00;;;9.73;;